CheckWX is a tool to help pilots better visualize weather data.  It is not intended as a substitute for an official pre-flight weather briefing.

05:09:56 UTC

UAOO TAF
Kzyl-Orda Southwest Airport
Kzyl-Orda, Kazakhstan
TAF UAOO 240200Z 2403/2412 01003MPS CAVOK

Feb-24@
03:00 UTC

Feb-24 @ 03:00 UTC

Feb-24@
12:00 UTC

Feb-24 @ 12:00 UTC

TAF UAOO 240200Z 2403/2412 01003MPS CAVOK
Wind
  • 010° at 6 KTS
Conditions
No significant weather
Cloud Levels
  • No significant clouds